createdAt,value
2023-01-13T00:01:30.420Z,21.25
2023-01-13T00:03:59.615Z,22.00
2023-01-13T00:06:29.376Z,21.25
2023-01-13T00:08:59.233Z,19.25
2023-01-13T00:11:29.152Z,22.75
2023-01-13T00:13:58.173Z,24.75
2023-01-13T00:16:27.020Z,21.00
2023-01-13T00:18:55.975Z,16.25
2023-01-13T00:21:26.421Z,16.75
2023-01-13T00:23:56.854Z,19.75
2023-01-13T00:26:32.119Z,17.00
2023-01-13T00:29:01.977Z,16.75
2023-01-13T00:31:31.897Z,18.25
2023-01-13T00:34:02.590Z,17.00
2023-01-13T00:36:32.348Z,16.00
2023-01-13T00:39:01.620Z,17.00
2023-01-13T00:41:50.280Z,12.25
2023-01-13T00:44:19.136Z,18.00
2023-01-13T00:46:47.957Z,13.50
2023-01-13T00:49:16.868Z,11.50
2023-01-13T00:51:45.684Z,18.75
2023-01-13T00:54:14.498Z,14.50
2023-01-13T00:56:43.382Z,15.50
2023-01-13T00:59:14.230Z,15.50
2023-01-13T01:01:43.719Z,14.25
2023-01-13T01:04:13.571Z,17.50
2023-01-13T01:06:42.465Z,14.75
2023-01-13T01:09:16.802Z,16.00
2023-01-13T01:11:46.018Z,20.50
2023-01-13T01:14:15.987Z,14.75
2023-01-13T01:16:44.810Z,16.50
2023-01-13T01:19:13.613Z,18.75
2023-01-13T01:21:42.486Z,14.75
2023-01-13T01:24:11.995Z,17.25
2023-01-13T01:26:41.024Z,18.00
2023-01-13T01:29:15.985Z,18.25
2023-01-13T01:31:45.410Z,16.00
2023-01-13T01:34:14.338Z,14.75
2023-01-13T01:36:43.227Z,22.50
2023-01-13T01:39:12.619Z,15.50
2023-01-13T01:42:01.292Z,19.50
2023-01-13T01:44:45.693Z,17.75
2023-01-13T01:47:19.926Z,18.25
2023-01-13T01:49:49.741Z,17.00
2023-01-13T01:52:35.289Z,18.00
2023-01-13T01:55:16.459Z,17.25
2023-01-13T01:57:56.248Z,14.75
2023-01-13T02:00:26.197Z,18.50
2023-01-13T02:02:55.288Z,18.50
2023-01-13T02:05:25.144Z,20.25
2023-01-13T02:07:58.595Z,16.50
2023-01-13T02:10:30.358Z,20.00
2023-01-13T02:13:03.667Z,19.25
2023-01-13T02:15:53.444Z,20.00
2023-01-13T02:18:40.786Z,19.25
2023-01-13T02:21:32.486Z,20.50
2023-01-13T02:25:02.717Z,18.00
2023-01-13T02:27:50.041Z,18.75
2023-01-13T02:31:02.667Z,23.75
2023-01-13T02:33:54.456Z,25.00
2023-01-13T02:36:26.366Z,18.00
2023-01-13T02:39:07.285Z,23.25
2023-01-13T02:42:16.649Z,25.50
2023-01-13T02:44:53.992Z,19.75
2023-01-13T02:47:26.965Z,20.00
2023-01-13T02:50:02.179Z,21.25
2023-01-13T02:52:33.701Z,22.75
2023-01-13T02:55:12.277Z,20.50
2023-01-13T02:57:43.492Z,23.75
2023-01-13T03:00:14.982Z,26.25
2023-01-13T03:02:43.380Z,21.00
2023-01-13T03:05:17.026Z,22.00
2023-01-13T03:07:45.310Z,23.75
2023-01-13T03:10:41.690Z,23.00
2023-01-13T03:13:30.842Z,21.75
2023-01-13T03:16:32.905Z,18.00
2023-01-13T03:19:16.621Z,15.75
2023-01-13T03:21:57.673Z,16.75
2023-01-13T03:24:29.007Z,21.25
2023-01-13T03:27:34.738Z,19.00
2023-01-13T03:30:21.123Z,13.25
2023-01-13T03:33:14.622Z,19.25
2023-01-13T03:35:47.311Z,14.75
2023-01-13T03:38:36.969Z,16.00
2023-01-13T03:41:11.931Z,18.25
2023-01-13T03:44:07.683Z,12.75
2023-01-13T03:46:49.976Z,15.00
2023-01-13T03:49:23.477Z,13.50
2023-01-13T03:51:58.412Z,13.25
2023-01-13T03:54:32.235Z,15.25
2023-01-13T03:57:10.065Z,11.25
2023-01-13T03:59:44.712Z,11.50
2023-01-13T04:02:30.863Z,14.25
2023-01-13T04:05:06.811Z,13.25
2023-01-13T04:07:53.409Z,16.00
2023-01-13T04:10:29.987Z,17.75
2023-01-13T04:13:06.354Z,15.50
2023-01-13T04:15:45.098Z,12.75
2023-01-13T04:18:15.445Z,17.75
2023-01-13T04:20:45.288Z,15.50
2023-01-13T04:23:14.662Z,15.00
2023-01-13T04:25:43.372Z,15.75
2023-01-13T04:28:13.024Z,13.50
2023-01-13T04:30:42.518Z,12.25
2023-01-13T04:33:11.524Z,14.50
2023-01-13T04:35:40.236Z,15.75
2023-01-13T04:38:18.214Z,13.75
2023-01-13T04:40:46.825Z,17.75
2023-01-13T04:43:16.639Z,14.00
2023-01-13T04:45:45.750Z,14.75
2023-01-13T04:48:14.813Z,11.75
2023-01-13T04:50:43.234Z,13.25
2023-01-13T04:53:11.586Z,11.50
2023-01-13T04:55:40.182Z,12.25
2023-01-13T04:58:11.139Z,11.00
2023-01-13T05:00:40.230Z,12.75
2023-01-13T05:03:08.598Z,13.75
2023-01-13T05:05:37.037Z,14.75
2023-01-13T05:08:06.359Z,16.00
2023-01-13T05:10:34.644Z,16.75
2023-01-13T05:13:21.168Z,13.25
2023-01-13T05:16:25.307Z,11.00
2023-01-13T05:18:53.672Z,12.50
2023-01-13T05:21:40.055Z,13.75
2023-01-13T05:24:29.118Z,14.00
2023-01-13T05:26:57.451Z,12.00
2023-01-13T05:29:25.736Z,11.25
2023-01-13T05:31:54.283Z,13.00
2023-01-13T05:34:22.622Z,14.25
2023-01-13T05:36:50.989Z,14.00
2023-01-13T05:39:19.301Z,12.00
2023-01-13T05:42:06.117Z,13.00
2023-01-13T05:44:34.409Z,11.75
2023-01-13T05:47:02.680Z,11.00
2023-01-13T05:49:30.957Z,14.00
2023-01-13T05:51:59.250Z,11.25
2023-01-13T05:54:27.560Z,13.00
2023-01-13T05:56:55.843Z,13.75
2023-01-13T05:59:24.114Z,12.00
2023-01-13T06:01:52.427Z,11.25
2023-01-13T06:04:20.895Z,9.50
2023-01-13T06:06:49.805Z,11.00
2023-01-13T06:09:18.579Z,12.00
2023-01-13T06:11:47.431Z,11.50
2023-01-13T06:14:15.780Z,12.50
2023-01-13T06:16:44.105Z,13.00
2023-01-13T06:19:14.105Z,11.25
2023-01-13T06:21:43.000Z,9.00
2023-01-13T06:24:11.609Z,9.25
2023-01-13T06:26:41.699Z,11.25
2023-01-13T06:29:11.059Z,11.00
2023-01-13T06:31:40.941Z,14.25
2023-01-13T06:34:13.351Z,10.75
2023-01-13T06:36:53.198Z,13.00
2023-01-13T06:39:26.159Z,14.50
2023-01-13T06:42:13.888Z,11.25
2023-01-13T06:44:42.334Z,12.00
2023-01-13T06:47:11.199Z,12.75
2023-01-13T06:49:39.561Z,14.00
2023-01-13T06:52:07.843Z,15.00
2023-01-13T06:54:36.229Z,12.50
2023-01-13T06:57:05.279Z,14.25
2023-01-13T06:59:36.154Z,11.25
2023-01-13T07:02:04.823Z,12.00
2023-01-13T07:04:45.915Z,12.25
2023-01-13T07:07:14.989Z,13.50
2023-01-13T07:09:43.307Z,15.00
2023-01-13T07:12:11.611Z,14.00
2023-01-13T07:14:58.103Z,10.00
2023-01-13T07:17:26.372Z,14.75
2023-01-13T07:19:54.734Z,13.25
2023-01-13T07:22:23.053Z,15.25
2023-01-13T07:24:51.364Z,9.00
2023-01-13T07:27:19.670Z,11.00
2023-01-13T07:29:48.194Z,14.00
2023-01-13T07:32:16.591Z,9.50
2023-01-13T07:34:44.931Z,9.75
2023-01-13T07:37:13.226Z,13.00
2023-01-13T07:39:41.503Z,13.50
2023-01-13T07:42:29.176Z,15.25
2023-01-13T07:44:57.450Z,12.25
2023-01-13T07:47:25.887Z,11.00
2023-01-13T07:49:56.987Z,13.75
2023-01-13T07:52:25.278Z,12.75
2023-01-13T07:54:53.576Z,12.75
2023-01-13T07:57:21.898Z,11.00
2023-01-13T07:59:50.189Z,11.00
2023-01-13T08:02:18.673Z,14.25
2023-01-13T08:04:47.149Z,13.50
2023-01-13T08:07:15.496Z,15.50
2023-01-13T08:09:43.788Z,12.25
2023-01-13T08:12:30.494Z,13.00
2023-01-13T08:14:58.793Z,13.00
2023-01-13T08:17:27.100Z,13.25
2023-01-13T08:19:55.461Z,14.50
2023-01-13T08:22:23.807Z,13.50
2023-01-13T08:24:52.274Z,15.75
2023-01-13T08:27:21.424Z,14.50
2023-01-13T08:29:49.714Z,11.25
2023-01-13T08:32:18.080Z,14.50
2023-01-13T08:34:46.411Z,13.25
2023-01-13T08:37:14.748Z,16.75
2023-01-13T08:39:43.019Z,11.75
2023-01-13T08:42:11.391Z,10.75
2023-01-13T08:44:39.815Z,12.75
2023-01-13T08:47:08.117Z,13.00
2023-01-13T08:49:36.860Z,13.75
2023-01-13T08:52:05.744Z,12.00
2023-01-13T08:54:34.040Z,13.00
2023-01-13T08:57:04.230Z,9.50
2023-01-13T08:59:32.771Z,10.25
2023-01-13T09:02:02.101Z,11.50
2023-01-13T09:04:31.045Z,12.00
2023-01-13T09:06:59.475Z,10.50
2023-01-13T09:09:28.693Z,10.75
2023-01-13T09:12:15.325Z,11.25
2023-01-13T09:14:43.633Z,9.00
2023-01-13T09:17:11.933Z,12.25
2023-01-13T09:19:40.229Z,11.00
2023-01-13T09:22:11.265Z,9.00
2023-01-13T09:24:39.728Z,11.50
2023-01-13T09:27:08.025Z,12.00
2023-01-13T09:29:36.423Z,8.00
2023-01-13T09:32:05.493Z,13.75
2023-01-13T09:34:52.602Z,12.25
2023-01-13T09:37:20.934Z,11.75
2023-01-13T09:39:49.352Z,11.50
2023-01-13T09:42:46.041Z,11.00
2023-01-13T09:45:23.797Z,12.00
2023-01-13T09:48:09.284Z,9.00
2023-01-13T09:51:19.712Z,9.75
2023-01-13T09:54:04.370Z,10.50
2023-01-13T09:56:32.723Z,9.25
2023-01-13T09:59:01.051Z,12.00
2023-01-13T10:02:03.839Z,11.50
2023-01-13T10:04:32.177Z,10.00
2023-01-13T10:07:06.851Z,11.00
2023-01-13T10:09:47.574Z,12.50
2023-01-13T10:12:39.761Z,10.75
2023-01-13T10:15:14.628Z,11.00
2023-01-13T10:17:59.851Z,11.25
2023-01-13T10:20:41.885Z,13.00
2023-01-13T10:23:39.932Z,14.25
2023-01-13T10:26:19.041Z,14.25
2023-01-13T10:28:54.162Z,11.50
2023-01-13T10:31:24.086Z,15.50
2023-01-13T10:34:05.674Z,17.00
2023-01-13T10:36:34.842Z,15.50
2023-01-13T10:39:16.429Z,15.25
2023-01-13T10:41:46.149Z,13.75
2023-01-13T10:44:19.508Z,15.00
2023-01-13T10:46:56.402Z,13.50
2023-01-13T10:49:37.286Z,16.50
2023-01-13T10:52:26.769Z,15.00
2023-01-13T10:54:57.674Z,18.25
2023-01-13T10:57:28.221Z,16.00
2023-01-13T10:59:59.945Z,14.00
2023-01-13T11:02:32.978Z,14.75
2023-01-13T11:05:14.612Z,16.00
2023-01-13T11:07:53.487Z,16.75
2023-01-13T11:10:30.109Z,16.50
2023-01-13T11:13:30.443Z,15.75
2023-01-13T11:16:17.963Z,16.00
2023-01-13T11:19:12.943Z,13.75
2023-01-13T11:21:54.747Z,13.25
2023-01-13T11:24:38.651Z,11.00
2023-01-13T11:27:39.450Z,12.75
2023-01-13T11:30:26.039Z,14.50
2023-01-13T11:33:03.112Z,15.25
2023-01-13T11:35:35.605Z,16.75
2023-01-13T11:38:31.642Z,11.00
2023-01-13T11:41:16.185Z,15.50
2023-01-13T11:43:53.217Z,13.25
2023-01-13T11:46:27.390Z,13.25
2023-01-13T11:48:57.725Z,16.50
2023-01-13T11:51:34.121Z,14.75
2023-01-13T11:54:35.011Z,14.00
2023-01-13T11:57:24.248Z,17.50
2023-01-13T12:00:04.430Z,19.00
2023-01-13T12:02:54.051Z,16.00
2023-01-13T12:05:45.646Z,20.25
2023-01-13T12:08:36.767Z,18.25
2023-01-13T12:11:25.359Z,20.75
2023-01-13T12:14:14.992Z,19.25
2023-01-13T12:16:50.386Z,22.75
2023-01-13T12:19:25.441Z,19.25
2023-01-13T12:22:17.466Z,19.75
2023-01-13T12:25:05.001Z,19.25
2023-01-13T12:27:47.796Z,20.00
2023-01-13T12:30:22.335Z,24.50
2023-01-13T12:32:53.689Z,20.75
2023-01-13T12:35:22.023Z,18.25
2023-01-13T12:38:05.215Z,18.00
2023-01-13T12:40:55.651Z,19.75
2023-01-13T12:43:44.227Z,19.75
2023-01-13T12:46:24.287Z,17.75
2023-01-13T12:49:23.403Z,19.50
2023-01-13T12:51:57.814Z,17.25
2023-01-13T12:54:42.122Z,22.75
2023-01-13T12:57:26.359Z,24.25
2023-01-13T13:00:06.792Z,23.75
2023-01-13T13:02:45.294Z,27.00
2023-01-13T13:05:18.617Z,25.00
2023-01-13T13:07:53.323Z,25.25
2023-01-13T13:10:25.628Z,24.00
2023-01-13T13:13:16.388Z,22.75
2023-01-13T13:15:46.428Z,25.50
2023-01-13T13:18:26.023Z,25.50
2023-01-13T13:21:07.578Z,22.50
2023-01-13T13:23:46.558Z,23.50
2023-01-13T13:26:25.655Z,19.75
2023-01-13T13:29:12.639Z,22.50
2023-01-13T13:31:46.533Z,23.00
2023-01-13T13:34:28.068Z,23.00
2023-01-13T13:37:11.411Z,23.50
2023-01-13T13:40:02.457Z,22.50
2023-01-13T13:43:02.236Z,24.75
2023-01-13T13:46:00.702Z,19.50
2023-01-13T13:48:32.133Z,19.00
2023-01-13T13:51:04.836Z,20.75
2023-01-13T13:53:41.640Z,22.75
2023-01-13T13:56:25.899Z,23.00
2023-01-13T13:58:55.591Z,21.50
2023-01-13T14:01:28.796Z,22.00
2023-01-13T14:04:26.648Z,27.00
2023-01-13T14:07:05.945Z,23.00
2023-01-13T14:09:54.729Z,26.50
2023-01-13T14:12:25.707Z,23.00
2023-01-13T14:14:58.521Z,27.00
2023-01-13T14:17:32.082Z,28.00
2023-01-13T14:20:02.560Z,26.75
2023-01-13T14:22:31.012Z,27.00
2023-01-13T14:24:59.546Z,23.50
2023-01-13T14:27:29.750Z,26.25
2023-01-13T14:30:01.449Z,27.50
2023-01-13T14:32:38.115Z,26.25
2023-01-13T14:35:09.988Z,22.75
2023-01-13T14:37:43.357Z,25.00
2023-01-13T14:40:37.083Z,25.75
2023-01-13T14:43:21.316Z,22.75
2023-01-13T14:46:01.383Z,25.00
2023-01-13T14:48:37.530Z,28.00
2023-01-13T14:51:11.733Z,23.75
2023-01-13T14:53:48.282Z,24.25
2023-01-13T14:56:38.169Z,23.75
2023-01-13T14:59:35.449Z,21.00
2023-01-13T15:02:24.018Z,24.25
2023-01-13T15:04:59.568Z,24.00
2023-01-13T15:07:33.426Z,21.50
2023-01-13T15:10:05.244Z,23.75
2023-01-13T15:12:37.214Z,23.75
2023-01-13T15:15:28.388Z,18.50
2023-01-13T15:17:56.740Z,24.75
2023-01-13T15:20:26.785Z,21.50
2023-01-13T15:22:56.999Z,17.25
2023-01-13T15:25:25.640Z,21.25
2023-01-13T15:27:54.676Z,27.75
2023-01-13T15:30:27.165Z,24.25
2023-01-13T15:32:57.112Z,34.00
2023-01-13T15:35:28.683Z,28.00
2023-01-13T15:37:58.678Z,29.00
2023-01-13T15:40:32.594Z,26.00
2023-01-13T15:43:19.734Z,30.00
2023-01-13T15:46:06.835Z,27.50
2023-01-13T15:48:35.817Z,28.25
2023-01-13T15:51:04.211Z,24.50
2023-01-13T15:53:33.689Z,27.50
2023-01-13T15:56:02.598Z,24.00
2023-01-13T15:58:32.726Z,27.75
2023-01-13T16:01:01.061Z,30.50
2023-01-13T16:03:29.350Z,25.75
2023-01-13T16:05:57.686Z,26.00
2023-01-13T16:08:25.976Z,26.75
2023-01-13T16:10:54.430Z,22.50
2023-01-13T16:13:22.764Z,27.75
2023-01-13T16:15:51.752Z,26.75
2023-01-13T16:18:25.273Z,26.25
2023-01-13T16:20:56.022Z,26.25
2023-01-13T16:23:24.770Z,25.75
2023-01-13T16:25:53.176Z,25.00
2023-01-13T16:28:29.089Z,26.75
2023-01-13T16:30:57.379Z,27.25
2023-01-13T16:33:25.689Z,24.75
2023-01-13T16:36:10.866Z,26.00
2023-01-13T16:38:41.006Z,26.25
2023-01-13T16:41:10.341Z,23.25
2023-01-13T16:43:39.315Z,24.50
2023-01-13T16:46:28.360Z,25.75
2023-01-13T16:49:04.848Z,27.00
2023-01-13T16:51:34.571Z,28.25
2023-01-13T16:54:02.995Z,24.75
2023-01-13T16:56:33.930Z,30.00
2023-01-13T16:59:08.524Z,28.75
2023-01-13T17:01:40.287Z,26.75
2023-01-13T17:04:14.474Z,27.75
2023-01-13T17:07:12.616Z,24.50
2023-01-13T17:09:40.984Z,22.25
2023-01-13T17:12:11.182Z,28.00
2023-01-13T17:14:39.711Z,23.50
2023-01-13T17:17:08.109Z,30.50
2023-01-13T17:19:36.455Z,27.50
2023-01-13T17:22:04.944Z,25.75
2023-01-13T17:24:36.057Z,25.50
2023-01-13T17:27:04.915Z,29.50
2023-01-13T17:29:33.859Z,25.75
2023-01-13T17:32:02.923Z,26.50
2023-01-13T17:34:31.263Z,25.25
2023-01-13T17:36:59.567Z,28.25
2023-01-13T17:39:28.213Z,25.25
2023-01-13T17:41:59.344Z,26.50
2023-01-13T17:44:27.650Z,24.75
2023-01-13T17:46:55.905Z,28.50
2023-01-13T17:49:24.276Z,28.50
2023-01-13T17:51:52.559Z,28.00
2023-01-13T17:54:21.314Z,27.50
2023-01-13T17:56:49.816Z,30.00
2023-01-13T17:59:20.272Z,24.50
2023-01-13T18:01:48.668Z,27.00
2023-01-13T18:04:19.280Z,24.50
2023-01-13T18:06:48.009Z,29.25
2023-01-13T18:09:16.739Z,26.50
2023-01-13T18:11:47.076Z,26.50
2023-01-13T18:14:15.829Z,24.50
2023-01-13T18:16:44.424Z,31.50
2023-01-13T18:19:31.613Z,30.25
2023-01-13T18:22:18.068Z,33.00
2023-01-13T18:25:04.679Z,27.25
2023-01-13T18:27:36.903Z,29.00
2023-01-13T18:30:07.586Z,28.50
2023-01-13T18:32:36.042Z,26.50
2023-01-13T18:35:07.436Z,29.25
2023-01-13T18:37:36.977Z,31.25
2023-01-13T18:40:06.699Z,31.00
2023-01-13T18:42:53.112Z,25.75
2023-01-13T18:45:25.176Z,37.50
2023-01-13T18:47:54.848Z,25.25
2023-01-13T18:50:23.985Z,26.75
2023-01-13T18:52:52.696Z,33.50
2023-01-13T18:55:21.908Z,31.00
2023-01-13T18:57:51.469Z,33.00
2023-01-13T19:00:21.626Z,33.25
2023-01-13T19:05:36.182Z,25.00
2023-01-13T19:08:05.478Z,27.25
2023-01-13T19:10:33.884Z,25.00
2023-01-13T19:13:02.784Z,25.25
2023-01-13T19:15:31.658Z,27.25
2023-01-13T19:18:00.016Z,21.50
2023-01-13T19:20:28.336Z,23.75
2023-01-13T19:22:56.673Z,25.50
2023-01-13T19:25:24.988Z,23.00
2023-01-13T19:27:53.319Z,20.50
2023-01-13T19:30:21.666Z,22.25
2023-01-13T19:32:49.972Z,21.50
2023-01-13T19:35:18.645Z,25.25
2023-01-13T19:37:46.931Z,26.00
2023-01-13T19:40:15.408Z,24.75
2023-01-13T19:43:05.575Z,23.75
2023-01-13T19:45:36.203Z,28.50
2023-01-13T19:48:05.968Z,23.75
2023-01-13T19:50:40.861Z,27.00
2023-01-13T19:53:15.532Z,24.50
2023-01-13T19:55:49.416Z,24.00
2023-01-13T19:58:19.955Z,28.00
2023-01-13T20:00:49.453Z,26.00
2023-01-13T20:03:21.447Z,20.25
2023-01-13T20:05:49.899Z,23.25
2023-01-13T20:08:22.642Z,26.75
2023-01-13T20:10:51.222Z,23.25
2023-01-13T20:13:19.538Z,23.25
2023-01-13T20:15:47.908Z,18.75
2023-01-13T20:18:16.256Z,21.75
2023-01-13T20:20:44.528Z,24.00
2023-01-13T20:23:13.303Z,24.00
2023-01-13T20:25:43.945Z,25.00
2023-01-13T20:28:12.303Z,24.75
2023-01-13T20:30:41.464Z,22.50
2023-01-13T20:33:09.912Z,24.50
2023-01-13T20:35:38.193Z,28.75
2023-01-13T20:38:06.465Z,23.25
2023-01-13T20:40:34.829Z,26.75
2023-01-13T20:43:03.173Z,25.75
2023-01-13T20:45:31.499Z,24.50
2023-01-13T20:48:00.035Z,26.75
2023-01-13T20:50:28.324Z,27.25
2023-01-13T20:52:56.611Z,28.00
2023-01-13T20:55:24.944Z,25.00
2023-01-13T20:57:53.399Z,21.50
2023-01-13T21:00:22.085Z,27.00
2023-01-13T21:02:50.556Z,26.25
2023-01-13T21:05:18.851Z,26.00
2023-01-13T21:07:47.165Z,25.75
2023-01-13T21:10:15.610Z,26.00
2023-01-13T21:13:02.345Z,30.50
2023-01-13T21:15:30.679Z,27.50
2023-01-13T21:18:17.494Z,24.00
2023-01-13T21:20:45.840Z,25.00
2023-01-13T21:23:14.198Z,28.50
2023-01-13T21:25:42.608Z,26.25
2023-01-13T21:28:14.475Z,26.75
2023-01-13T21:30:42.944Z,25.75
2023-01-13T21:33:14.923Z,26.50
2023-01-13T21:35:43.273Z,22.00
2023-01-13T21:38:12.710Z,23.25
2023-01-13T21:40:41.063Z,23.75
2023-01-13T21:43:31.186Z,25.75
2023-01-13T21:46:17.992Z,25.25
2023-01-13T21:48:46.364Z,22.25
2023-01-13T21:51:14.663Z,26.25
2023-01-13T21:53:42.968Z,23.50
2023-01-13T21:56:11.250Z,22.50
2023-01-13T21:58:40.059Z,24.00
2023-01-13T22:01:11.985Z,24.00
2023-01-13T22:03:59.291Z,26.00
2023-01-13T22:06:27.795Z,24.75
2023-01-13T22:08:56.955Z,24.75
2023-01-13T22:11:25.241Z,25.50
2023-01-13T22:14:10.363Z,30.25
2023-01-13T22:16:50.030Z,26.75
2023-01-13T22:19:19.648Z,27.50
2023-01-13T22:21:47.963Z,27.00
2023-01-13T22:24:16.306Z,28.50
2023-01-13T22:26:44.624Z,31.75
2023-01-13T22:29:12.979Z,30.25
2023-01-13T22:31:41.268Z,28.25
2023-01-13T22:34:12.768Z,34.00
2023-01-13T22:36:41.096Z,30.75
2023-01-13T22:39:10.402Z,28.25
2023-01-13T22:41:38.691Z,27.75
2023-01-13T22:44:07.055Z,29.75
2023-01-13T22:46:35.759Z,34.00
2023-01-13T22:49:04.073Z,29.50
2023-01-13T22:51:32.385Z,29.25
2023-01-13T22:54:00.690Z,30.75
2023-01-13T22:56:29.075Z,30.25
2023-01-13T22:58:59.415Z,29.50
2023-01-13T23:01:30.299Z,30.25
2023-01-13T23:03:58.955Z,28.75
2023-01-13T23:06:29.366Z,29.50
2023-01-13T23:08:57.771Z,30.75
2023-01-13T23:11:28.772Z,29.50
2023-01-13T23:14:02.367Z,31.50
2023-01-13T23:16:32.547Z,32.50
2023-01-13T23:19:00.984Z,30.75
2023-01-13T23:21:34.335Z,29.25
2023-01-13T23:24:03.107Z,28.75
2023-01-13T23:26:33.079Z,30.50
2023-01-13T23:29:03.614Z,28.25
2023-01-13T23:31:32.126Z,31.25
2023-01-13T23:34:01.233Z,28.75
2023-01-13T23:36:30.405Z,32.50
2023-01-13T23:39:00.195Z,27.25
2023-01-13T23:41:29.853Z,29.25
2023-01-13T23:44:02.230Z,31.25
2023-01-13T23:46:33.955Z,26.50
2023-01-13T23:49:05.998Z,29.50
2023-01-13T23:51:34.544Z,25.75
2023-01-13T23:54:02.935Z,25.25
2023-01-13T23:56:32.635Z,27.25
2023-01-13T23:59:00.913Z,29.50
